Time;durP1;ratioP1;P1;durP2;ratioP2;P2;SDS_P1;SDS_P2;PMS_P1;PMS_P2;Temp;Humidity;BMP_temperature;BMP_pressure;BME280_temperature;BME280_humidity;BME280_pressure;Samples;Min_cycle;Max_cycle;Signal;HPM_P1;HPM_P2
2022/10/11 00:00:39;;;;;;;13.98;2.92;;;7.60;99.90;;;;;;4944643;29;20499;-62
2022/10/11 00:03:05;;;;;;;17.05;3.10;;;7.60;99.90;;;;;;4944582;29;20094;-61
2022/10/11 00:05:32;;;;;;;12.45;3.35;;;7.90;99.90;;;;;;4945042;28;20043;-62
2022/10/11 00:07:57;;;;;;;19.35;3.65;;;7.70;99.90;;;;;;4945545;29;20043;-63
2022/10/11 00:10:23;;;;;;;10.98;3.25;;;7.70;99.90;;;;;;4944272;29;20390;-62
2022/10/11 00:12:51;;;;;;;16.55;3.22;;;8.20;99.90;;;;;;4944461;29;20043;-62
2022/10/11 00:15:20;;;;;;;14.80;3.22;;;7.60;99.90;;;;;;4944781;29;20051;-63
2022/10/11 00:17:46;;;;;;;12.10;2.58;;;7.60;99.90;;;;;;4905646;28;1107190;-63
2022/10/11 00:20:13;;;;;;;13.45;3.20;;;7.60;99.90;;;;;;4945847;29;20047;-61
2022/10/11 00:22:39;;;;;;;11.73;3.00;;;7.60;99.90;;;;;;4945489;29;20097;-62
2022/10/11 00:25:07;;;;;;;12.73;2.85;;;7.70;99.90;;;;;;4945295;29;20055;-61
2022/10/11 00:27:34;;;;;;;16.52;3.10;;;7.60;99.90;;;;;;4945751;29;20103;-62
2022/10/11 00:30:00;;;;;;;19.02;3.47;;;7.70;99.90;;;;;;4945560;29;20070;-61
2022/10/11 00:32:26;;;;;;;10.48;2.60;;;7.70;99.90;;;;;;4943987;29;20456;-62
2022/10/11 00:34:52;;;;;;;13.90;2.65;;;7.50;99.90;;;;;;4945518;29;20086;-61
2022/10/11 00:37:18;;;;;;;14.32;3.33;;;7.60;99.90;;;;;;4945373;29;20078;-63
2022/10/11 00:39:44;;;;;;;19.75;3.72;;;7.60;99.90;;;;;;4945800;29;20078;-61
2022/10/11 00:42:14;;;;;;;12.57;2.80;;;7.70;99.90;;;;;;4945077;29;20051;-63
2022/10/11 00:44:44;;;;;;;16.45;3.15;;;7.60;99.90;;;;;;4928434;29;20051;-61
2022/10/11 00:47:16;;;;;;;13.60;3.55;;;7.60;99.90;;;;;;4944244;29;20039;-63
2022/10/11 00:49:48;;;;;;;15.65;3.50;;;7.50;99.90;;;;;;4945244;29;20422;-62
2022/10/11 00:52:27;;;;;;;14.05;2.78;;;7.60;99.90;;;;;;4945705;29;20051;-62
2022/10/11 00:54:55;;;;;;;11.48;2.47;;;7.70;99.90;;;;;;4944458;29;20416;-62
2022/10/11 00:57:25;;;;;;;9.38;2.75;;;7.80;99.90;;;;;;4943748;29;20383;-62
2022/10/11 00:59:53;;;;;;;14.20;3.55;;;7.60;99.90;;;;;;4927864;29;20051;-62
2022/10/11 01:02:20;;;;;;;17.00;2.92;;;7.60;99.90;;;;;;4943527;29;20466;-62
2022/10/11 01:04:46;;;;;;;12.95;2.45;;;7.70;99.90;;;;;;4944385;29;20047;-61
2022/10/11 01:07:12;;;;;;;9.00;2.67;;;7.80;99.90;;;;;;4944138;29;20058;-62
2022/10/11 01:09:38;;;;;;;13.85;2.58;;;7.60;99.90;;;;;;4944956;29;20422;-62
2022/10/11 01:12:11;;;;;;;17.00;2.60;;;7.60;99.90;;;;;;4944221;29;20051;-62
2022/10/11 01:14:39;;;;;;;13.32;2.72;;;7.60;99.90;;;;;;4945150;29;21048;-62
2022/10/11 01:17:20;;;;;;;16.85;3.28;;;7.50;99.90;;;;;;4943638;28;20064;-63
2022/10/11 01:19:58;;;;;;;13.77;2.72;;;7.60;99.90;;;;;;4947782;29;20070;-63
2022/10/11 01:22:45;;;;;;;16.33;2.90;;;7.50;99.90;;;;;;4930691;29;20059;-61
2022/10/11 01:25:19;;;;;;;14.43;2.40;;;7.70;99.90;;;;;;4948551;29;20578;-61
2022/10/11 01:28:05;;;;;;;16.15;2.88;;;7.50;99.90;;;;;;4948506;29;20055;-61
2022/10/11 01:30:35;;;;;;;11.80;2.58;;;7.40;99.90;;;;;;4931322;29;20051;-62
2022/10/11 01:33:26;;;;;;;16.08;2.85;;;7.40;99.90;;;;;;4947808;29;20054;-61
2022/10/11 01:36:02;;;;;;;15.13;2.53;;;7.40;99.90;;;;;;4948377;29;20065;-61
2022/10/11 01:38:55;;;;;;;15.48;2.90;;;7.30;99.90;;;;;;4948485;29;20502;-62
2022/10/11 01:41:26;;;;;;;12.50;2.50;;;7.20;99.90;;;;;;4931268;29;20047;-62
2022/10/11 01:43:56;;;;;;;12.18;2.45;;;7.40;99.90;;;;;;4948869;29;20466;-62
2022/10/11 01:46:23;;;;;;;11.00;2.20;;;7.90;99.90;;;;;;4947380;29;20066;-61
2022/10/11 01:48:49;;;;;;;9.57;2.47;;;7.30;99.90;;;;;;4948024;29;20055;-61
2022/10/11 01:51:18;;;;;;;14.77;2.75;;;7.50;99.90;;;;;;4930890;29;20043;-62
2022/10/11 01:54:08;;;;;;;12.57;2.80;;;7.30;99.90;;;;;;4947697;29;20118;-62
2022/10/11 01:56:52;;;;;;;11.60;2.85;;;7.20;99.90;;;;;;4948345;29;20051;-62
2022/10/11 02:00:00;;;;;;;17.40;2.97;;;7.50;99.90;;;;;;4948043;29;20544;-61
2022/10/11 02:02:35;;;;;;;15.02;3.00;;;7.10;99.90;;;;;;4946508;29;20047;-61
2022/10/11 02:05:08;;;;;;;16.80;2.40;;;7.20;99.90;;;;;;4948110;29;20808;-61
2022/10/11 02:07:43;;;;;;;14.98;2.35;;;7.20;99.90;;;;;;4948208;29;20622;-61
2022/10/11 02:10:29;;;;;;;14.50;2.70;;;7.30;99.90;;;;;;4947050;29;20178;-62
2022/10/11 02:13:02;;;;;;;14.38;2.28;;;7.00;99.90;;;;;;4947061;29;20418;-61
2022/10/11 02:15:31;;;;;;;14.15;2.53;;;7.10;99.90;;;;;;4947494;29;20375;-61
2022/10/11 02:18:00;;;;;;;14.38;2.30;;;7.00;99.90;;;;;;4946112;29;20127;-61
2022/10/11 02:20:29;;;;;;;17.88;2.55;;;7.10;99.90;;;;;;4946025;29;20093;-61
2022/10/11 02:23:04;;;;;;;14.38;2.97;;;7.00;99.90;;;;;;4951220;28;20558;-62
2022/10/11 02:25:33;;;;;;;16.75;3.00;;;7.00;99.90;;;;;;4966610;28;20039;-61
2022/10/11 02:28:03;;;;;;;16.13;3.05;;;6.80;99.90;;;;;;4966899;28;20093;-61
2022/10/11 02:30:29;;;;;;;13.63;2.28;;;6.80;99.90;;;;;;4966157;28;20046;-61
2022/10/11 02:32:57;;;;;;;13.85;2.42;;;6.70;99.90;;;;;;4948424;28;20058;-62
2022/10/11 02:35:26;;;;;;;14.35;2.72;;;6.70;99.90;;;;;;4965105;28;20050;-62
2022/10/11 02:38:04;;;;;;;14.63;2.60;;;6.60;99.90;;;;;;4966608;28;20051;-61
2022/10/11 02:40:31;;;;;;;11.30;2.47;;;7.20;99.90;;;;;;4966473;28;20097;-61
2022/10/11 02:42:58;;;;;;;11.93;2.22;;;6.70;99.90;;;;;;4966078;28;20061;-61
2022/10/11 02:45:37;;;;;;;13.25;2.70;;;6.50;99.90;;;;;;4965965;28;20089;-61
2022/10/11 02:48:05;;;;;;;12.27;2.70;;;6.60;99.90;;;;;;4965373;28;20043;-60
2022/10/11 02:50:30;;;;;;;10.55;2.42;;;6.40;99.90;;;;;;4948714;28;20519;-61
2022/10/11 02:52:56;;;;;;;14.43;2.47;;;6.50;99.90;;;;;;4965809;28;20134;-61
2022/10/11 02:55:22;;;;;;;9.40;1.92;;;6.60;99.90;;;;;;4965345;28;20066;-62
2022/10/11 02:57:47;;;;;;;15.48;2.22;;;6.70;99.90;;;;;;4965156;28;20042;-61
2022/10/11 03:00:14;;;;;;;16.58;3.33;;;6.50;99.90;;;;;;4965579;28;20552;-61
2022/10/11 03:02:39;;;;;;;10.63;2.67;;;6.60;99.90;;;;;;4964733;28;20042;-62
2022/10/11 03:05:05;;;;;;;14.18;2.40;;;6.70;99.90;;;;;;4959422;28;20458;-61
2022/10/11 03:07:31;;;;;;;18.80;3.03;;;6.60;99.90;;;;;;4945978;29;20104;-62
2022/10/11 03:09:57;;;;;;;15.48;3.00;;;6.80;99.90;;;;;;4946953;29;20615;-61
2022/10/11 03:12:22;;;;;;;13.70;2.67;;;6.70;99.90;;;;;;4946357;29;20576;-61
2022/10/11 03:14:48;;;;;;;13.73;2.63;;;6.80;99.90;;;;;;4945717;29;20046;-62
2022/10/11 03:17:13;;;;;;;13.95;2.65;;;6.60;99.90;;;;;;4945332;28;20522;-61
2022/10/11 03:19:39;;;;;;;16.70;3.40;;;6.70;99.90;;;;;;4946880;29;20633;-62
2022/10/11 03:22:05;;;;;;;12.25;2.45;;;6.60;99.90;;;;;;4946071;29;20068;-62
2022/10/11 03:24:30;;;;;;;14.80;2.67;;;6.70;99.90;;;;;;4945735;29;20047;-62
2022/10/11 03:26:56;;;;;;;14.15;2.65;;;6.70;99.90;;;;;;4946423;29;20035;-62
2022/10/11 03:29:22;;;;;;;9.40;2.50;;;6.60;99.90;;;;;;4945685;29;20058;-62
2022/10/11 03:31:47;;;;;;;13.82;2.45;;;6.50;99.90;;;;;;4945752;29;20550;-63
2022/10/11 03:34:13;;;;;;;12.27;2.30;;;6.90;99.90;;;;;;4945768;29;20496;-62
2022/10/11 03:36:39;;;;;;;16.02;2.97;;;6.40;99.90;;;;;;4946410;29;20486;-62
2022/10/11 03:39:04;;;;;;;13.75;2.70;;;6.60;99.90;;;;;;4945993;29;20035;-62
2022/10/11 03:41:30;;;;;;;15.35;2.80;;;6.20;99.90;;;;;;4944478;28;20047;-62
2022/10/11 03:43:56;;;;;;;10.80;3.00;;;6.20;99.90;;;;;;4946394;29;20055;-62
2022/10/11 03:46:21;;;;;;;12.25;2.35;;;6.20;99.90;;;;;;4945945;29;20159;-62
2022/10/11 03:48:47;;;;;;;15.85;3.10;;;6.20;99.90;;;;;;4945717;29;20483;-62
2022/10/11 03:51:13;;;;;;;15.70;3.15;;;6.80;99.90;;;;;;4945071;29;20565;-63
2022/10/11 03:53:40;;;;;;;14.82;2.63;;;6.20;99.90;;;;;;4946201;29;20089;-62
2022/10/11 03:56:07;;;;;;;11.90;2.47;;;6.10;99.90;;;;;;4945404;29;20078;-62
2022/10/11 03:58:33;;;;;;;13.40;2.50;;;6.20;99.90;;;;;;4945101;29;20039;-63
2022/10/11 04:00:59;;;;;;;10.45;2.08;;;6.20;99.90;;;;;;4946112;29;21473;-63
2022/10/11 04:03:25;;;;;;;15.63;3.60;;;6.40;99.90;;;;;;4945004;29;20050;-61
2022/10/11 04:05:50;;;;;;;13.27;3.15;;;6.20;99.90;;;;;;4928160;29;20121;-62
2022/10/11 04:08:16;;;;;;;13.00;2.28;;;6.00;99.90;;;;;;4944730;29;20122;-62
2022/10/11 04:10:42;;;;;;;14.82;2.90;;;6.00;99.90;;;;;;4945908;29;20130;-62
2022/10/11 04:13:10;;;;;;;12.52;2.42;;;6.00;99.90;;;;;;4945438;29;20039;-61
2022/10/11 04:15:36;;;;;;;15.52;2.80;;;6.00;99.90;;;;;;4944853;29;20051;-62
2022/10/11 04:18:02;;;;;;;17.00;2.88;;;6.10;99.90;;;;;;4944515;29;20107;-62
2022/10/11 04:20:28;;;;;;;14.85;2.90;;;6.10;99.90;;;;;;4945050;29;20051;-61
2022/10/11 04:22:53;;;;;;;11.82;2.45;;;6.20;99.90;;;;;;4945264;29;20094;-62
2022/10/11 04:25:19;;;;;;;16.73;3.42;;;6.20;99.90;;;;;;4944353;29;20047;-61
2022/10/11 04:27:45;;;;;;;14.40;2.90;;;6.00;99.90;;;;;;4944930;29;20537;-61
2022/10/11 04:30:11;;;;;;;15.15;3.08;;;6.20;99.90;;;;;;4945276;29;20557;-61
2022/10/11 04:32:37;;;;;;;14.80;2.58;;;6.20;99.90;;;;;;4945003;29;20074;-61
2022/10/11 04:35:03;;;;;;;15.18;2.72;;;6.20;99.90;;;;;;4944967;29;20047;-62
2022/10/11 04:37:28;;;;;;;14.13;2.38;;;6.20;99.90;;;;;;4945547;29;20121;-62
2022/10/11 04:39:54;;;;;;;15.20;2.50;;;6.50;99.90;;;;;;4945364;29;20039;-61
2022/10/11 04:42:19;;;;;;;15.30;2.85;;;6.20;99.90;;;;;;4944089;29;20498;-61
2022/10/11 04:44:45;;;;;;;16.70;3.30;;;6.20;99.90;;;;;;4945493;29;20062;-62
2022/10/11 04:47:12;;;;;;;13.95;2.88;;;6.50;99.90;;;;;;4944400;29;20084;-62
2022/10/11 04:49:37;;;;;;;17.13;3.20;;;6.20;99.90;;;;;;4944794;29;20055;-62
2022/10/11 04:52:03;;;;;;;9.02;2.80;;;6.40;99.90;;;;;;4944306;28;20051;-61
2022/10/11 04:54:29;;;;;;;14.93;3.00;;;6.20;99.90;;;;;;4945031;29;20039;-63
2022/10/11 04:56:54;;;;;;;16.20;2.95;;;6.10;99.90;;;;;;4945251;29;20178;-61
2022/10/11 04:59:20;;;;;;;13.38;3.00;;;6.20;99.90;;;;;;4926997;29;20051;-63
2022/10/11 05:01:46;;;;;;;16.00;3.10;;;6.10;99.90;;;;;;4944058;29;20043;-62
2022/10/11 05:04:12;;;;;;;17.67;2.95;;;6.20;99.90;;;;;;4944905;29;20513;-62
2022/10/11 05:06:38;;;;;;;13.88;2.80;;;6.10;99.90;;;;;;4944450;29;20051;-62
2022/10/11 05:09:04;;;;;;;16.55;3.35;;;6.10;99.90;;;;;;4944029;29;20433;-61
2022/10/11 05:11:29;;;;;;;15.15;3.13;;;6.40;99.90;;;;;;4927384;29;20059;-62
2022/10/11 05:13:55;;;;;;;12.70;2.67;;;6.70;99.90;;;;;;4944519;29;20498;-62
2022/10/11 05:16:22;;;;;;;14.63;3.13;;;6.10;99.90;;;;;;4943423;29;20047;-62
2022/10/11 05:18:48;;;;;;;18.10;3.30;;;6.10;99.90;;;;;;4944016;28;20065;-62
2022/10/11 05:21:16;;;;;;;14.95;3.20;;;6.30;99.90;;;;;;4944019;29;20055;-62
2022/10/11 05:23:43;;;;;;;18.60;3.70;;;6.40;99.90;;;;;;4944222;29;20097;-62
2022/10/11 05:26:08;;;;;;;15.68;2.97;;;6.10;99.90;;;;;;4925796;29;20043;-61
2022/10/11 05:28:34;;;;;;;17.55;2.92;;;6.10;99.90;;;;;;4944726;29;20102;-61
2022/10/11 05:31:00;;;;;;;15.40;3.22;;;6.00;99.90;;;;;;4945574;29;20111;-61
2022/10/11 05:33:25;;;;;;;12.52;2.50;;;6.10;99.90;;;;;;4926391;29;20498;-62
2022/10/11 05:35:51;;;;;;;15.90;3.00;;;6.20;99.90;;;;;;4944144;29;20162;-62
2022/10/11 05:38:18;;;;;;;14.25;2.85;;;6.00;99.90;;;;;;4943970;29;20040;-61
2022/10/11 05:40:44;;;;;;;21.65;3.83;;;6.10;99.90;;;;;;4943874;29;20497;-62
2022/10/11 05:43:09;;;;;;;16.40;3.92;;;6.00;99.90;;;;;;4926361;29;20055;-61
2022/10/11 05:45:37;;;;;;;15.88;3.42;;;6.20;99.90;;;;;;4944404;29;20052;-62
2022/10/11 05:48:03;;;;;;;11.05;2.92;;;6.00;99.90;;;;;;4944072;29;20057;-61
2022/10/11 05:50:29;;;;;;;16.35;3.30;;;6.10;99.90;;;;;;4927198;29;20446;-62
2022/10/11 05:52:55;;;;;;;16.50;3.38;;;6.10;99.90;;;;;;4943971;29;20043;-61
2022/10/11 05:55:21;;;;;;;14.95;3.45;;;6.10;99.90;;;;;;4944104;29;20514;-61
2022/10/11 05:57:46;;;;;;;14.73;3.47;;;6.10;99.90;;;;;;4944810;29;20424;-61
2022/10/11 06:00:12;;;;;;;14.63;3.20;;;6.10;99.90;;;;;;4926666;29;20582;-61
2022/10/11 06:02:38;;;;;;;18.08;3.60;;;6.00;99.90;;;;;;4943970;29;20102;-61
2022/10/11 06:05:04;;;;;;;14.13;3.30;;;6.10;99.90;;;;;;4945889;28;20470;-60
2022/10/11 06:07:30;;;;;;;12.30;3.00;;;6.10;99.90;;;;;;4948152;29;20051;-61
2022/10/11 06:09:56;;;;;;;16.55;3.05;;;6.10;99.90;;;;;;4947047;29;20039;-62
2022/10/11 06:12:21;;;;;;;17.92;3.42;;;6.20;99.90;;;;;;4947999;29;20061;-61
2022/10/11 06:14:47;;;;;;;16.95;2.88;;;6.20;99.90;;;;;;4947825;29;20070;-61
2022/10/11 06:17:13;;;;;;;12.48;3.10;;;6.40;99.90;;;;;;4946147;29;20097;-62
2022/10/11 06:19:38;;;;;;;13.68;2.92;;;6.50;99.90;;;;;;4947712;29;20122;-61
2022/10/11 06:22:04;;;;;;;13.73;2.85;;;6.80;99.90;;;;;;4946714;29;20058;-61
2022/10/11 06:24:30;;;;;;;15.70;2.95;;;6.80;99.90;;;;;;4947397;29;20042;-62
2022/10/11 06:26:55;;;;;;;12.95;3.30;;;6.60;99.90;;;;;;4946942;29;20058;-61
2022/10/11 06:29:21;;;;;;;12.50;3.20;;;6.20;99.90;;;;;;4947736;29;21083;-60
2022/10/11 06:31:48;;;;;;;14.57;3.30;;;6.40;99.90;;;;;;4929902;29;20047;-63
2022/10/11 06:34:14;;;;;;;14.20;2.60;;;6.40;99.90;;;;;;4946153;29;20043;-63
2022/10/11 06:36:40;;;;;;;16.38;2.85;;;6.30;99.90;;;;;;4947097;29;20043;-61
2022/10/11 06:39:06;;;;;;;13.10;2.95;;;6.30;99.90;;;;;;4929585;29;20126;-63
2022/10/11 06:41:32;;;;;;;12.45;3.40;;;6.40;99.90;;;;;;4947311;29;20126;-63
2022/10/11 06:43:58;;;;;;;14.20;3.08;;;6.40;99.90;;;;;;4946354;29;20510;-62
2022/10/11 06:46:26;;;;;;;13.55;3.28;;;6.40;99.90;;;;;;4945503;29;20035;-63
2022/10/11 06:48:53;;;;;;;14.52;3.08;;;6.50;99.90;;;;;;4930201;29;20051;-62
2022/10/11 06:51:20;;;;;;;13.63;2.85;;;6.60;99.90;;;;;;4946674;29;20035;-63
2022/10/11 06:53:50;;;;;;;16.63;2.85;;;6.60;99.90;;;;;;4946481;29;20043;-62
2022/10/11 06:56:17;;;;;;;15.02;3.28;;;6.50;99.90;;;;;;4946946;29;20075;-61
2022/10/11 06:58:44;;;;;;;12.35;2.85;;;6.90;99.90;;;;;;4947400;29;20043;-62
2022/10/11 07:01:12;;;;;;;11.45;3.08;;;6.60;99.90;;;;;;4928132;29;20050;-62
2022/10/11 07:03:38;;;;;;;12.15;3.22;;;6.90;99.90;;;;;;4946967;29;20057;-62
2022/10/11 07:06:10;;;;;;;10.88;2.95;;;6.80;99.90;;;;;;4946194;29;20141;-62
2022/10/11 07:08:36;;;;;;;15.18;3.45;;;6.80;99.90;;;;;;4946484;29;20043;-62
2022/10/11 07:11:08;;;;;;;11.32;2.75;;;6.90;99.90;;;;;;4946774;29;20118;-62
2022/10/11 07:13:35;;;;;;;15.23;2.92;;;7.00;99.90;;;;;;4946266;29;20051;-62
2022/10/11 07:16:03;;;;;;;21.30;3.10;;;7.10;99.90;;;;;;4944229;28;20055;-61
2022/10/11 07:18:29;;;;;;;15.45;3.60;;;7.20;99.90;;;;;;4946308;28;20071;-61
2022/10/11 07:20:54;;;;;;;20.80;4.13;;;7.30;99.90;;;;;;4945517;29;20043;-61
2022/10/11 07:23:20;;;;;;;16.13;3.58;;;7.30;99.90;;;;;;4944940;29;20046;-63
2022/10/11 07:25:46;;;;;;;14.48;3.35;;;7.50;99.90;;;;;;4946202;29;20047;-61
2022/10/11 07:28:12;;;;;;;14.23;3.67;;;7.50;99.90;;;;;;4953235;28;20842;-62
2022/10/11 07:30:39;;;;;;;14.70;3.60;;;7.60;99.90;;;;;;4965372;28;20050;-61
2022/10/11 07:33:05;;;;;;;16.20;3.60;;;7.70;99.90;;;;;;4964313;28;20039;-62
2022/10/11 07:35:35;;;;;;;10.82;2.70;;;7.80;99.90;;;;;;4965321;28;20523;-61
2022/10/11 07:38:00;;;;;;;15.45;3.42;;;7.90;99.90;;;;;;4965988;28;20043;-62
2022/10/11 07:40:26;;;;;;;12.05;2.90;;;8.00;99.90;;;;;;4964343;28;20043;-61
2022/10/11 07:42:52;;;;;;;11.55;2.60;;;8.00;99.90;;;;;;4965511;28;20081;-62
2022/10/11 07:45:18;;;;;;;13.45;2.83;;;8.20;99.90;;;;;;4964597;28;20121;-61
2022/10/11 07:47:45;;;;;;;11.05;2.53;;;8.30;99.90;;;;;;4964497;28;20152;-61
2022/10/11 07:50:11;;;;;;;13.63;3.13;;;8.30;99.90;;;;;;4964162;28;20062;-61
2022/10/11 07:52:37;;;;;;;15.30;3.75;;;8.60;99.90;;;;;;4947906;28;20105;-62
2022/10/11 07:55:03;;;;;;;11.65;3.03;;;8.70;99.90;;;;;;4965659;28;20457;-62
2022/10/11 07:57:29;;;;;;;12.65;3.30;;;9.00;99.90;;;;;;4965108;28;20093;-62
2022/10/11 07:59:54;;;;;;;14.30;2.80;;;9.00;99.90;;;;;;4965153;28;20074;-61
2022/10/11 08:02:20;;;;;;;15.80;2.78;;;9.00;99.90;;;;;;4947127;28;20050;-62
2022/10/11 08:04:45;;;;;;;14.93;2.60;;;9.10;99.90;;;;;;4961686;28;20043;-57
2022/10/11 08:07:11;;;;;;;10.65;3.60;;;9.30;99.90;;;;;;4945307;29;20063;-63
2022/10/11 08:09:37;;;;;;;15.82;3.85;;;9.50;99.90;;;;;;4946224;29;20047;-61
2022/10/11 08:12:02;;;;;;;14.77;4.03;;;9.50;99.90;;;;;;4945512;29;20070;-62
2022/10/11 08:14:28;;;;;;;16.17;4.57;;;9.60;99.90;;;;;;4946082;29;20509;-63
2022/10/11 08:16:54;;;;;;;14.95;3.78;;;9.50;99.90;;;;;;4944334;29;20047;-63
2022/10/11 08:19:19;;;;;;;11.40;2.92;;;9.80;99.90;;;;;;4945453;29;20055;-62
2022/10/11 08:21:45;;;;;;;17.50;3.97;;;9.90;99.90;;;;;;4951337;28;20173;-62
2022/10/11 08:24:14;;;;;;;12.27;3.78;;;10.10;99.90;;;;;;4962862;28;20051;-62
2022/10/11 08:26:40;;;;;;;10.35;3.33;;;10.10;99.90;;;;;;4964419;28;20043;-63
2022/10/11 08:29:06;;;;;;;14.40;3.55;;;10.10;99.90;;;;;;4964470;28;20121;-62
2022/10/11 08:31:33;;;;;;;11.73;3.38;;;10.10;99.90;;;;;;4964211;28;20055;-64
2022/10/11 08:33:59;;;;;;;22.95;3.35;;;10.20;99.90;;;;;;4964479;28;20057;-61
2022/10/11 08:36:25;;;;;;;12.70;2.80;;;10.30;99.90;;;;;;4964323;28;20051;-61
2022/10/11 08:38:50;;;;;;;12.82;2.92;;;10.50;99.90;;;;;;4964675;28;20093;-63
2022/10/11 08:41:40;;;;;;;11.63;2.70;;;10.70;99.90;;;;;;4963586;28;20062;-63
2022/10/11 08:44:30;;;;;;;10.48;2.55;;;10.90;99.90;;;;;;4963403;28;20085;-64
2022/10/11 08:47:01;;;;;;;14.90;3.08;;;11.00;99.90;;;;;;4963393;28;20078;-62
2022/10/11 08:49:31;;;;;;;14.85;2.67;;;11.10;99.90;;;;;;4964429;28;20413;-62
2022/10/11 08:52:03;;;;;;;10.07;2.47;;;11.30;99.90;;;;;;4963382;28;20086;-63
2022/10/11 08:54:48;;;;;;;9.55;2.42;;;11.40;99.90;;;;;;4964415;28;20493;-62
2022/10/11 08:57:18;;;;;;;11.10;2.55;;;11.70;99.90;;;;;;4962850;28;20057;-64
2022/10/11 08:59:50;;;;;;;11.88;2.33;;;11.80;99.90;;;;;;4946131;28;20039;-62
2022/10/11 09:02:37;;;;;;;12.50;2.63;;;12.00;99.90;;;;;;4962568;28;20038;-62
2022/10/11 09:05:03;;;;;;;10.07;2.78;;;12.50;99.90;;;;;;4956680;28;20038;-63
2022/10/11 09:08:00;;;;;;;11.43;2.53;;;12.90;99.90;;;;;;4953039;28;20042;-63
2022/10/11 09:10:44;;;;;;;8.23;2.55;;;13.30;99.90;;;;;;4953757;28;20441;-64
2022/10/11 09:13:33;;;;;;;10.88;2.22;;;13.90;99.90;;;;;;4952648;28;20083;-62
2022/10/11 09:16:01;;;;;;;9.43;2.40;;;14.10;99.90;;;;;;4950099;28;20925;-61
2022/10/11 09:18:39;;;;;;;14.25;2.88;;;14.40;99.90;;;;;;4960154;28;20095;-61
2022/10/11 09:21:30;;;;;;;10.90;2.13;;;14.50;99.90;;;;;;4963864;28;20046;-63
2022/10/11 09:24:57;;;;;;;8.77;2.13;;;14.80;99.90;;;;;;4963306;28;20059;-63
2022/10/11 09:27:37;;;;;;;10.25;2.30;;;14.50;99.90;;;;;;4852868;29;20064;-54
2022/10/11 09:30:10;;;;;;;12.23;2.40;;;15.00;99.90;;;;;;4902621;29;20716;-68
2022/10/11 09:32:38;;;;;;;13.27;2.85;;;15.30;99.90;;;;;;4948360;28;20062;-67
2022/10/11 09:35:19;;;;;;;8.27;2.10;;;15.40;99.90;;;;;;4963938;28;20097;-67
2022/10/11 09:37:55;;;;;;;15.40;4.43;;;15.10;99.90;;;;;;4945145;28;20102;-67
2022/10/11 09:40:32;;;;;;;12.30;5.72;;;15.80;99.90;;;;;;4966082;28;20490;-67
2022/10/11 09:42:58;;;;;;;10.93;4.20;;;16.20;99.90;;;;;;4968584;28;20093;-67
2022/10/11 09:45:24;;;;;;;12.75;3.72;;;16.30;99.90;;;;;;4948873;28;20422;-69
2022/10/11 09:47:53;;;;;;;11.13;2.50;;;16.10;99.90;;;;;;4950032;28;20105;-67
2022/10/11 09:50:22;;;;;;;10.18;2.80;;;16.20;99.90;;;;;;4967353;28;20043;-67
2022/10/11 09:52:53;;;;;;;10.65;3.33;;;15.70;99.90;;;;;;4949442;28;20058;-67
2022/10/11 09:55:39;;;;;;;9.05;2.70;;;15.80;99.90;;;;;;4950175;28;20138;-67
2022/10/11 09:58:24;;;;;;;12.38;2.45;;;15.70;99.90;;;;;;4966553;28;20086;-67
2022/10/11 10:01:01;;;;;;;10.63;1.88;;;16.00;99.90;;;;;;4949178;28;20078;-67
2022/10/11 10:03:29;;;;;;;13.73;2.42;;;16.00;99.90;;;;;;4948992;28;20096;-67
2022/10/11 10:06:26;;;;;;;13.10;2.47;;;15.60;99.90;;;;;;4954492;28;20043;-67
2022/10/11 10:08:52;;;;;;;13.98;2.28;;;15.90;99.90;;;;;;4938724;29;20117;-67
2022/10/11 10:11:18;;;;;;;9.70;2.85;;;16.20;99.90;;;;;;4947526;29;20643;-67
2022/10/11 10:13:50;;;;;;;10.15;2.28;;;16.30;99.90;;;;;;4946764;29;20398;-67
2022/10/11 10:16:31;;;;;;;11.10;3.42;;;16.40;99.90;;;;;;4945958;29;20607;-67
2022/10/11 10:19:00;;;;;;;11.10;2.00;;;16.60;99.90;;;;;;4947840;29;20067;-67
2022/10/11 10:21:37;;;;;;;6.40;1.42;;;16.20;99.90;;;;;;4947235;29;20059;-67
2022/10/11 10:24:16;;;;;;;11.38;2.22;;;15.50;99.90;;;;;;4947516;29;20054;-68
2022/10/11 10:26:42;;;;;;;9.30;2.35;;;16.10;99.90;;;;;;4947919;29;20047;-67
2022/10/11 10:29:07;;;;;;;7.80;2.00;;;16.40;99.90;;;;;;4946619;29;20402;-68
2022/10/11 10:31:48;;;;;;;11.25;2.17;;;16.20;99.90;;;;;;4929533;29;20055;-67
2022/10/11 10:34:20;;;;;;;9.02;2.00;;;16.50;99.90;;;;;;4946647;29;20047;-67
2022/10/11 10:36:54;;;;;;;12.50;2.25;;;16.40;99.90;;;;;;4947611;29;20039;-67
2022/10/11 10:39:45;;;;;;;11.27;1.92;;;16.00;99.90;;;;;;4947104;29;20055;-67
2022/10/11 10:42:15;;;;;;;8.80;1.65;;;16.10;99.90;;;;;;4947143;29;20055;-67
2022/10/11 10:44:41;;;;;;;11.20;2.05;;;15.70;99.90;;;;;;4947180;29;20047;-67
2022/10/11 10:47:25;;;;;;;9.55;1.80;;;16.10;99.90;;;;;;4945228;29;20502;-68
2022/10/11 10:50:01;;;;;;;11.65;2.55;;;16.10;99.90;;;;;;4946854;28;20077;-67
2022/10/11 10:52:41;;;;;;;8.55;1.70;;;16.10;99.90;;;;;;4946590;29;20126;-67
2022/10/11 10:55:41;;;;;;;9.48;2.20;;;16.00;99.90;;;;;;4929590;29;20051;-67
2022/10/11 10:58:35;;;;;;;14.75;1.92;;;16.70;99.90;;;;;;4947167;29;20414;-68
2022/10/11 11:01:09;;;;;;;9.07;1.92;;;16.50;99.90;;;;;;4945903;29;20054;-67
2022/10/11 11:03:47;;;;;;;10.98;1.77;;;16.40;99.90;;;;;;4946923;29;20039;-67
2022/10/11 11:06:35;;;;;;;12.70;2.10;;;16.50;99.90;;;;;;4945332;29;20039;-67
2022/10/11 11:09:16;;;;;;;8.07;2.03;;;16.60;99.90;;;;;;4928123;29;20538;-66
2022/10/11 11:11:56;;;;;;;10.05;2.08;;;17.20;99.90;;;;;;4926870;29;20044;-67
2022/10/11 11:15:04;;;;;;;9.40;2.28;;;16.50;99.90;;;;;;4910104;29;20055;-69
2022/10/11 11:17:32;;;;;;;13.52;2.25;;;16.00;99.90;;;;;;4921259;29;20130;-68
2022/10/11 11:20:23;;;;;;;11.50;2.90;;;15.90;99.90;;;;;;4911101;29;20419;-68
2022/10/11 11:23:13;;;;;;;13.38;3.00;;;15.60;99.90;;;;;;4910054;29;20640;-68
2022/10/11 11:25:47;;;;;;;12.88;2.20;;;15.50;99.90;;;;;;4927264;29;20044;-68
2022/10/11 11:28:13;;;;;;;14.07;2.67;;;15.10;99.90;;;;;;4926955;29;20044;-67
2022/10/11 11:31:12;;;;;;;9.70;1.88;;;15.10;99.90;;;;;;4926295;29;20403;-67
2022/10/11 11:33:40;;;;;;;10.38;2.05;;;15.60;99.90;;;;;;4926569;29;20039;-67
2022/10/11 11:36:12;;;;;;;9.40;2.05;;;16.00;99.90;;;;;;4926337;29;20135;-68
2022/10/11 11:38:47;;;;;;;8.90;1.63;;;16.10;99.90;;;;;;4926735;29;20058;-67
2022/10/11 11:41:26;;;;;;;11.30;2.30;;;16.30;99.90;;;;;;4926654;29;20072;-67
2022/10/11 11:43:58;;;;;;;9.13;1.92;;;16.30;99.90;;;;;;4927289;29;20139;-67
2022/10/11 11:46:32;;;;;;;7.40;1.77;;;16.30;99.90;;;;;;4924000;29;20042;-67
2022/10/11 11:49:04;;;;;;;12.63;1.52;;;16.50;99.90;;;;;;4926971;29;20054;-67
2022/10/11 11:51:35;;;;;;;10.18;1.95;;;16.20;99.90;;;;;;4910403;29;20048;-67
2022/10/11 11:54:28;;;;;;;8.95;2.00;;;16.00;99.90;;;;;;4927684;29;20058;-68
2022/10/11 11:57:21;;;;;;;7.95;1.40;;;16.10;99.90;;;;;;4927300;29;20106;-75
2022/10/11 12:00:10;;;;;;;9.13;1.80;;;16.30;99.90;;;;;;4909290;29;20050;-75
2022/10/11 12:02:54;;;;;;;8.40;1.90;;;16.50;99.90;;;;;;4904045;29;20051;-75
2022/10/11 12:05:23;;;;;;;12.50;2.20;;;16.50;99.90;;;;;;4911826;29;20596;-73
2022/10/11 12:07:59;;;;;;;10.25;1.55;;;16.50;99.90;;;;;;4945701;29;20142;-75
2022/10/11 12:10:31;;;;;;;9.38;2.15;;;16.90;99.90;;;;;;4945154;29;20058;-75
2022/10/11 12:13:15;;;;;;;8.90;1.80;;;17.20;99.90;;;;;;4928800;29;20057;-75
2022/10/11 12:15:55;;;;;;;12.85;1.92;;;17.10;99.90;;;;;;4944364;29;20051;-78
2022/10/11 12:18:21;;;;;;;6.72;1.70;;;16.70;99.90;;;;;;4943737;28;20087;-74
2022/10/11 12:21:01;;;;;;;11.38;3.05;;;16.50;99.90;;;;;;4943998;28;20122;-78
2022/10/11 12:23:30;;;;;;;9.52;1.90;;;16.10;99.90;;;;;;4940440;28;20199;-78
2022/10/11 12:26:16;;;;;;;5.65;1.50;;;16.10;99.90;;;;;;4930492;29;20039;-78
2022/10/11 12:28:42;;;;;;;10.50;3.05;;;15.60;99.90;;;;;;4928239;29;20059;-78
2022/10/11 12:31:24;;;;;;;8.82;2.00;;;15.60;99.90;;;;;;4951904;28;20614;-75
2022/10/11 12:33:54;;;;;;;11.63;1.90;;;15.50;99.90;;;;;;4962603;28;20058;-75
2022/10/11 12:36:35;;;;;;;7.53;1.67;;;15.60;99.90;;;;;;4946702;28;20043;-67
2022/10/11 12:39:19;;;;;;;11.60;2.50;;;15.50;99.90;;;;;;4947645;28;20425;-67
2022/10/11 12:44:27;;;;;;;7.10;1.30;;;15.50;99.90;;;;;;4946486;28;20046;-67
2022/10/11 12:46:52;;;;;;;9.20;1.63;;;15.40;99.90;;;;;;4963541;28;20047;-67
2022/10/11 12:49:36;;;;;;;9.70;1.75;;;15.20;99.90;;;;;;4963971;28;20254;-67
2022/10/11 12:52:23;;;;;;;6.78;1.55;;;15.20;99.90;;;;;;4946134;28;20541;-67
2022/10/11 12:55:20;;;;;;;10.52;1.90;;;15.10;99.90;;;;;;4946722;28;20065;-67
2022/10/11 12:57:55;;;;;;;7.40;1.48;;;15.20;99.90;;;;;;4964543;28;20129;-67
2022/10/11 13:00:40;;;;;;;8.57;1.33;;;15.20;99.90;;;;;;4963355;28;20082;-66
2022/10/11 13:03:28;;;;;;;8.70;1.58;;;14.90;99.90;;;;;;4964402;28;20046;-67
2022/10/11 13:05:56;;;;;;;7.57;1.70;;;15.10;99.90;;;;;;4950766;28;20502;-66
2022/10/11 13:08:31;;;;;;;12.13;1.77;;;15.10;99.90;;;;;;4944746;29;20463;-66